sensor_id;sensor_type;location;lat;lon;timestamp;P1;durP1;ratioP1;P2;durP2;ratioP2
12218;SDS011;6172;42.646;23.344;2022-09-13T00:09:41;3.67;;;2.83;;
12218;SDS011;6172;42.646;23.344;2022-09-13T00:12:22;3.10;;;2.77;;
12218;SDS011;6172;42.646;23.344;2022-09-13T00:15:07;3.07;;;2.77;;
12218;SDS011;6172;42.646;23.344;2022-09-13T00:18:01;3.70;;;3.00;;
12218;SDS011;6172;42.646;23.344;2022-09-13T00:21:04;3.27;;;3.03;;
12218;SDS011;6172;42.646;23.344;2022-09-13T00:23:48;3.30;;;2.60;;
12218;SDS011;6172;42.646;23.344;2022-09-13T00:26:56;4.40;;;3.17;;
12218;SDS011;6172;42.646;23.344;2022-09-13T00:29:23;3.10;;;2.80;;
12218;SDS011;6172;42.646;23.344;2022-09-13T00:32:06;5.67;;;2.80;;
12218;SDS011;6172;42.646;23.344;2022-09-13T00:34:56;3.07;;;2.77;;
12218;SDS011;6172;42.646;23.344;2022-09-13T00:37:57;3.13;;;2.67;;
12218;SDS011;6172;42.646;23.344;2022-09-13T00:40:26;3.50;;;3.20;;
12218;SDS011;6172;42.646;23.344;2022-09-13T00:45:32;3.60;;;2.60;;
12218;SDS011;6172;42.646;23.344;2022-09-13T00:48:17;3.30;;;3.00;;
12218;SDS011;6172;42.646;23.344;2022-09-13T00:50:48;3.67;;;2.50;;
12218;SDS011;6172;42.646;23.344;2022-09-13T00:53:26;3.53;;;2.63;;
12218;SDS011;6172;42.646;23.344;2022-09-13T00:55:58;2.57;;;2.37;;
12218;SDS011;6172;42.646;23.344;2022-09-13T00:58:32;3.97;;;3.00;;
12218;SDS011;6172;42.646;23.344;2022-09-13T01:04:27;3.30;;;2.60;;
12218;SDS011;6172;42.646;23.344;2022-09-13T01:06:58;3.87;;;2.67;;
12218;SDS011;6172;42.646;23.344;2022-09-13T01:16:17;3.97;;;2.70;;
12218;SDS011;6172;42.646;23.344;2022-09-13T01:39:03;2.60;;;2.40;;
12218;SDS011;6172;42.646;23.344;2022-09-13T01:44:29;3.20;;;2.40;;
12218;SDS011;6172;42.646;23.344;2022-09-13T01:49:56;3.07;;;2.57;;
12218;SDS011;6172;42.646;23.344;2022-09-13T01:52:35;3.03;;;2.50;;
12218;SDS011;6172;42.646;23.344;2022-09-13T01:55:14;2.73;;;2.50;;
12218;SDS011;6172;42.646;23.344;2022-09-13T01:58:11;4.97;;;2.23;;
12218;SDS011;6172;42.646;23.344;2022-09-13T02:00:50;4.53;;;3.00;;
12218;SDS011;6172;42.646;23.344;2022-09-13T02:03:22;2.43;;;2.20;;
12218;SDS011;6172;42.646;23.344;2022-09-13T02:05:56;3.20;;;2.63;;
12218;SDS011;6172;42.646;23.344;2022-09-13T02:08:35;3.27;;;2.60;;
12218;SDS011;6172;42.646;23.344;2022-09-13T02:13:58;3.27;;;2.77;;
12218;SDS011;6172;42.646;23.344;2022-09-13T02:16:32;3.37;;;2.53;;
12218;SDS011;6172;42.646;23.344;2022-09-13T02:22:44;2.87;;;2.53;;
12218;SDS011;6172;42.646;23.344;2022-09-13T02:25:43;3.20;;;2.50;;
12218;SDS011;6172;42.646;23.344;2022-09-13T02:28:18;3.87;;;2.60;;
12218;SDS011;6172;42.646;23.344;2022-09-13T02:30:53;3.47;;;2.60;;
12218;SDS011;6172;42.646;23.344;2022-09-13T02:33:40;3.00;;;2.70;;
12218;SDS011;6172;42.646;23.344;2022-09-13T02:36:12;2.80;;;2.60;;
12218;SDS011;6172;42.646;23.344;2022-09-13T02:38:43;2.40;;;2.20;;
12218;SDS011;6172;42.646;23.344;2022-09-13T02:41:16;4.40;;;2.87;;
12218;SDS011;6172;42.646;23.344;2022-09-13T02:43:56;2.83;;;2.53;;
12218;SDS011;6172;42.646;23.344;2022-09-13T02:46:35;3.87;;;2.73;;
12218;SDS011;6172;42.646;23.344;2022-09-13T02:49:21;3.97;;;2.60;;
12218;SDS011;6172;42.646;23.344;2022-09-13T02:52:08;3.27;;;2.80;;
12218;SDS011;6172;42.646;23.344;2022-09-13T02:55:07;4.60;;;2.90;;
12218;SDS011;6172;42.646;23.344;2022-09-13T02:57:58;4.43;;;2.90;;
12218;SDS011;6172;42.646;23.344;2022-09-13T03:10:40;2.60;;;2.40;;
12218;SDS011;6172;42.646;23.344;2022-09-13T03:21:01;4.40;;;2.70;;
12218;SDS011;6172;42.646;23.344;2022-09-13T03:30:28;2.67;;;2.37;;
12218;SDS011;6172;42.646;23.344;2022-09-13T03:33:00;2.37;;;2.10;;
12218;SDS011;6172;42.646;23.344;2022-09-13T03:35:34;3.80;;;2.47;;
12218;SDS011;6172;42.646;23.344;2022-09-13T03:38:07;4.03;;;2.73;;
12218;SDS011;6172;42.646;23.344;2022-09-13T03:40:39;3.70;;;2.57;;
12218;SDS011;6172;42.646;23.344;2022-09-13T03:43:12;2.90;;;1.97;;
12218;SDS011;6172;42.646;23.344;2022-09-13T04:08:03;5.73;;;2.47;;
12218;SDS011;6172;42.646;23.344;2022-09-13T04:10:34;2.57;;;2.10;;
12218;SDS011;6172;42.646;23.344;2022-09-13T04:13:03;3.03;;;2.70;;
12218;SDS011;6172;42.646;23.344;2022-09-13T04:18:19;6.77;;;2.90;;
12218;SDS011;6172;42.646;23.344;2022-09-13T04:21:06;4.20;;;3.00;;
12218;SDS011;6172;42.646;23.344;2022-09-13T04:24:08;2.20;;;2.10;;
12218;SDS011;6172;42.646;23.344;2022-09-13T04:30:26;5.97;;;2.80;;
12218;SDS011;6172;42.646;23.344;2022-09-13T04:32:55;6.10;;;2.53;;
12218;SDS011;6172;42.646;23.344;2022-09-13T04:51:04;4.30;;;1.90;;
12218;SDS011;6172;42.646;23.344;2022-09-13T04:54:07;2.53;;;2.10;;
12218;SDS011;6172;42.646;23.344;2022-09-13T04:56:37;3.83;;;2.10;;
12218;SDS011;6172;42.646;23.344;2022-09-13T04:59:07;1.73;;;1.60;;
12218;SDS011;6172;42.646;23.344;2022-09-13T05:13:29;3.10;;;1.90;;
12218;SDS011;6172;42.646;23.344;2022-09-13T05:15:58;6.60;;;2.67;;
12218;SDS011;6172;42.646;23.344;2022-09-13T05:18:26;3.37;;;2.13;;
12218;SDS011;6172;42.646;23.344;2022-09-13T05:20:53;2.23;;;2.00;;
12218;SDS011;6172;42.646;23.344;2022-09-13T05:23:20;4.17;;;2.13;;
12218;SDS011;6172;42.646;23.344;2022-09-13T05:25:51;3.57;;;2.10;;
12218;SDS011;6172;42.646;23.344;2022-09-13T05:28:21;3.10;;;1.70;;
12218;SDS011;6172;42.646;23.344;2022-09-13T05:30:53;2.40;;;1.35;;
12218;SDS011;6172;42.646;23.344;2022-09-13T05:33:24;2.05;;;1.60;;
12218;SDS011;6172;42.646;23.344;2022-09-13T05:35:52;1.40;;;1.30;;
12218;SDS011;6172;42.646;23.344;2022-09-13T05:38:20;2.45;;;1.65;;
12218;SDS011;6172;42.646;23.344;2022-09-13T05:40:52;2.80;;;1.40;;
12218;SDS011;6172;42.646;23.344;2022-09-13T05:43:23;9.07;;;1.98;;
12218;SDS011;6172;42.646;23.344;2022-09-13T05:45:58;2.08;;;1.52;;
12218;SDS011;6172;42.646;23.344;2022-09-13T05:48:28;1.77;;;1.65;;
12218;SDS011;6172;42.646;23.344;2022-09-13T05:51:10;3.78;;;2.40;;
12218;SDS011;6172;42.646;23.344;2022-09-13T05:53:38;5.78;;;1.70;;
12218;SDS011;6172;42.646;23.344;2022-09-13T05:56:08;2.67;;;1.80;;
12218;SDS011;6172;42.646;23.344;2022-09-13T05:58:39;4.05;;;2.10;;
12218;SDS011;6172;42.646;23.344;2022-09-13T06:01:08;1.80;;;1.50;;
12218;SDS011;6172;42.646;23.344;2022-09-13T06:03:39;4.25;;;1.50;;
12218;SDS011;6172;42.646;23.344;2022-09-13T06:06:09;1.70;;;1.60;;
12218;SDS011;6172;42.646;23.344;2022-09-13T06:08:53;3.67;;;1.70;;
12218;SDS011;6172;42.646;23.344;2022-09-13T06:11:21;3.97;;;1.75;;
12218;SDS011;6172;42.646;23.344;2022-09-13T06:13:52;2.13;;;1.25;;
12218;SDS011;6172;42.646;23.344;2022-09-13T06:16:19;2.78;;;1.45;;
12218;SDS011;6172;42.646;23.344;2022-09-13T06:18:46;1.38;;;1.25;;
12218;SDS011;6172;42.646;23.344;2022-09-13T06:21:14;2.13;;;1.50;;
12218;SDS011;6172;42.646;23.344;2022-09-13T06:23:42;2.40;;;1.40;;
12218;SDS011;6172;42.646;23.344;2022-09-13T06:26:10;1.63;;;1.52;;
12218;SDS011;6172;42.646;23.344;2022-09-13T06:28:39;3.00;;;1.70;;
12218;SDS011;6172;42.646;23.344;2022-09-13T06:31:12;1.67;;;1.58;;
12218;SDS011;6172;42.646;23.344;2022-09-13T06:33:40;2.80;;;1.70;;
12218;SDS011;6172;42.646;23.344;2022-09-13T06:36:09;2.08;;;1.48;;
12218;SDS011;6172;42.646;23.344;2022-09-13T06:38:38;1.75;;;1.20;;
12218;SDS011;6172;42.646;23.344;2022-09-13T06:41:12;1.67;;;1.25;;
12218;SDS011;6172;42.646;23.344;2022-09-13T06:43:43;1.48;;;1.38;;
12218;SDS011;6172;42.646;23.344;2022-09-13T06:49:09;2.25;;;1.48;;
12218;SDS011;6172;42.646;23.344;2022-09-13T06:51:40;1.83;;;1.20;;
12218;SDS011;6172;42.646;23.344;2022-09-13T06:54:07;1.52;;;1.40;;
12218;SDS011;6172;42.646;23.344;2022-09-13T06:56:36;4.43;;;1.30;;
12218;SDS011;6172;42.646;23.344;2022-09-13T06:59:04;2.05;;;1.50;;
12218;SDS011;6172;42.646;23.344;2022-09-13T07:01:41;1.45;;;1.17;;
12218;SDS011;6172;42.646;23.344;2022-09-13T07:04:10;2.83;;;1.20;;
12218;SDS011;6172;42.646;23.344;2022-09-13T07:06:39;1.75;;;1.42;;
12218;SDS011;6172;42.646;23.344;2022-09-13T07:09:10;4.13;;;1.90;;
12218;SDS011;6172;42.646;23.344;2022-09-13T07:11:39;3.92;;;2.17;;
12218;SDS011;6172;42.646;23.344;2022-09-13T07:14:11;8.93;;;1.95;;
12218;SDS011;6172;42.646;23.344;2022-09-13T07:16:43;3.40;;;1.60;;
12218;SDS011;6172;42.646;23.344;2022-09-13T07:19:11;1.90;;;1.40;;
12218;SDS011;6172;42.646;23.344;2022-09-13T07:21:40;4.90;;;1.52;;
12218;SDS011;6172;42.646;23.344;2022-09-13T07:24:08;2.72;;;1.48;;
12218;SDS011;6172;42.646;23.344;2022-09-13T07:26:49;4.00;;;1.20;;
12218;SDS011;6172;42.646;23.344;2022-09-13T07:29:21;2.95;;;1.42;;
12218;SDS011;6172;42.646;23.344;2022-09-13T07:37:11;2.88;;;1.02;;
12218;SDS011;6172;42.646;23.344;2022-09-13T07:39:42;5.32;;;1.30;;
12218;SDS011;6172;42.646;23.344;2022-09-13T07:42:16;2.38;;;1.20;;
12218;SDS011;6172;42.646;23.344;2022-09-13T07:44:53;0.93;;;0.93;;
12218;SDS011;6172;42.646;23.344;2022-09-13T07:52:57;7.97;;;2.00;;
12218;SDS011;6172;42.646;23.344;2022-09-13T07:55:29;9.73;;;1.60;;
12218;SDS011;6172;42.646;23.344;2022-09-13T07:57:57;4.32;;;1.58;;
12218;SDS011;6172;42.646;23.344;2022-09-13T08:05:37;3.70;;;1.30;;
12218;SDS011;6172;42.646;23.344;2022-09-13T08:08:21;1.95;;;0.85;;
12218;SDS011;6172;42.646;23.344;2022-09-13T08:10:49;0.73;;;0.65;;
12218;SDS011;6172;42.646;23.344;2022-09-13T08:13:16;3.35;;;1.70;;
12218;SDS011;6172;42.646;23.344;2022-09-13T08:15:59;1.50;;;1.40;;
12218;SDS011;6172;42.646;23.344;2022-09-13T08:18:28;1.23;;;1.13;;
12218;SDS011;6172;42.646;23.344;2022-09-13T08:21:09;1.67;;;0.82;;
12218;SDS011;6172;42.646;23.344;2022-09-13T08:23:48;2.10;;;1.10;;
12218;SDS011;6172;42.646;23.344;2022-09-13T08:26:15;1.17;;;1.10;;
12218;SDS011;6172;42.646;23.344;2022-09-13T08:28:42;3.13;;;1.40;;
12218;SDS011;6172;42.646;23.344;2022-09-13T08:31:13;1.15;;;0.90;;
12218;SDS011;6172;42.646;23.344;2022-09-13T08:34:09;2.28;;;1.05;;
12218;SDS011;6172;42.646;23.344;2022-09-13T08:37:01;1.55;;;0.98;;
12218;SDS011;6172;42.646;23.344;2022-09-13T08:39:31;2.53;;;0.93;;
12218;SDS011;6172;42.646;23.344;2022-09-13T08:42:18;2.15;;;1.23;;
12218;SDS011;6172;42.646;23.344;2022-09-13T08:44:55;1.60;;;1.02;;
12218;SDS011;6172;42.646;23.344;2022-09-13T08:47:30;1.30;;;0.88;;
12218;SDS011;6172;42.646;23.344;2022-09-13T08:50:09;2.40;;;0.90;;
12218;SDS011;6172;42.646;23.344;2022-09-13T08:53:05;1.00;;;0.60;;
12218;SDS011;6172;42.646;23.344;2022-09-13T08:56:01;2.47;;;0.70;;
12218;SDS011;6172;42.646;23.344;2022-09-13T09:01:49;2.42;;;0.68;;
12218;SDS011;6172;42.646;23.344;2022-09-13T09:04:53;1.98;;;1.00;;
12218;SDS011;6172;42.646;23.344;2022-09-13T09:08:10;0.82;;;0.60;;
12218;SDS011;6172;42.646;23.344;2022-09-13T09:10:40;3.28;;;0.65;;
12218;SDS011;6172;42.646;23.344;2022-09-13T09:13:25;3.00;;;0.63;;
12218;SDS011;6172;42.646;23.344;2022-09-13T09:16:01;2.92;;;0.50;;
12218;SDS011;6172;42.646;23.344;2022-09-13T09:18:41;1.15;;;0.68;;
12218;SDS011;6172;42.646;23.344;2022-09-13T09:21:36;2.28;;;1.00;;
12218;SDS011;6172;42.646;23.344;2022-09-13T09:24:08;1.35;;;0.90;;
12218;SDS011;6172;42.646;23.344;2022-09-13T09:26:46;2.28;;;0.98;;
12218;SDS011;6172;42.646;23.344;2022-09-13T09:32:19;1.95;;;0.70;;
12218;SDS011;6172;42.646;23.344;2022-09-13T09:35:47;1.15;;;0.50;;
12218;SDS011;6172;42.646;23.344;2022-09-13T09:38:30;3.72;;;1.20;;
12218;SDS011;6172;42.646;23.344;2022-09-13T09:41:14;2.28;;;1.10;;
12218;SDS011;6172;42.646;23.344;2022-09-13T09:43:51;3.28;;;0.90;;
12218;SDS011;6172;42.646;23.344;2022-09-13T09:46:30;0.80;;;0.80;;
12218;SDS011;6172;42.646;23.344;2022-09-13T09:49:04;8.48;;;1.45;;
12218;SDS011;6172;42.646;23.344;2022-09-13T09:51:58;1.98;;;1.00;;
12218;SDS011;6172;42.646;23.344;2022-09-13T09:54:31;2.25;;;1.10;;
12218;SDS011;6172;42.646;23.344;2022-09-13T09:57:03;1.77;;;0.70;;
12218;SDS011;6172;42.646;23.344;2022-09-13T09:59:32;1.73;;;0.80;;
12218;SDS011;6172;42.646;23.344;2022-09-13T10:02:18;1.45;;;0.77;;
12218;SDS011;6172;42.646;23.344;2022-09-13T10:04:57;1.10;;;0.90;;
12218;SDS011;6172;42.646;23.344;2022-09-13T10:07:29;1.40;;;0.90;;
12218;SDS011;6172;42.646;23.344;2022-09-13T10:09:59;2.78;;;1.05;;
12218;SDS011;6172;42.646;23.344;2022-09-13T10:12:31;2.00;;;1.60;;
12218;SDS011;6172;42.646;23.344;2022-09-13T10:15:14;1.92;;;0.90;;
12218;SDS011;6172;42.646;23.344;2022-09-13T10:17:59;0.70;;;0.70;;
12218;SDS011;6172;42.646;23.344;2022-09-13T10:20:28;0.80;;;0.80;;
12218;SDS011;6172;42.646;23.344;2022-09-13T10:23:16;1.38;;;0.90;;
12218;SDS011;6172;42.646;23.344;2022-09-13T10:28:54;24.90;;;4.28;;
12218;SDS011;6172;42.646;23.344;2022-09-13T10:31:30;2.15;;;1.10;;
12218;SDS011;6172;42.646;23.344;2022-09-13T10:34:03;0.95;;;0.63;;
12218;SDS011;6172;42.646;23.344;2022-09-13T10:36:48;2.35;;;0.82;;
12218;SDS011;6172;42.646;23.344;2022-09-13T10:39:22;1.02;;;0.80;;
12218;SDS011;6172;42.646;23.344;2022-09-13T10:41:53;1.67;;;0.90;;
12218;SDS011;6172;42.646;23.344;2022-09-13T10:44:32;0.82;;;0.70;;
12218;SDS011;6172;42.646;23.344;2022-09-13T10:47:09;0.70;;;0.70;;
12218;SDS011;6172;42.646;23.344;2022-09-13T10:49:43;0.77;;;0.77;;
12218;SDS011;6172;42.646;23.344;2022-09-13T10:52:26;0.85;;;0.70;;
12218;SDS011;6172;42.646;23.344;2022-09-13T10:55:27;0.85;;;0.73;;
12218;SDS011;6172;42.646;23.344;2022-09-13T11:06:52;1.45;;;0.70;;
12218;SDS011;6172;42.646;23.344;2022-09-13T11:09:26;1.38;;;0.80;;
12218;SDS011;6172;42.646;23.344;2022-09-13T11:12:01;0.82;;;0.82;;
12218;SDS011;6172;42.646;23.344;2022-09-13T11:14:41;1.10;;;0.80;;
12218;SDS011;6172;42.646;23.344;2022-09-13T11:17:22;1.17;;;0.80;;
12218;SDS011;6172;42.646;23.344;2022-09-13T11:23:38;1.58;;;1.13;;
12218;SDS011;6172;42.646;23.344;2022-09-13T11:26:33;89.70;;;7.10;;
12218;SDS011;6172;42.646;23.344;2022-09-13T11:29:17;1.05;;;0.95;;
12218;SDS011;6172;42.646;23.344;2022-09-13T11:32:00;1.15;;;1.00;;
12218;SDS011;6172;42.646;23.344;2022-09-13T11:34:42;1.63;;;0.90;;
12218;SDS011;6172;42.646;23.344;2022-09-13T11:37:29;1.65;;;0.70;;
12218;SDS011;6172;42.646;23.344;2022-09-13T11:59:01;0.70;;;0.63;;
12218;SDS011;6172;42.646;23.344;2022-09-13T12:01:49;2.47;;;1.10;;
12218;SDS011;6172;42.646;23.344;2022-09-13T12:04:32;2.08;;;0.88;;
12218;SDS011;6172;42.646;23.344;2022-09-13T12:07:08;11.68;;;1.48;;
12218;SDS011;6172;42.646;23.344;2022-09-13T12:12:20;0.75;;;0.63;;
12218;SDS011;6172;42.646;23.344;2022-09-13T12:17:41;1.15;;;0.70;;
12218;SDS011;6172;42.646;23.344;2022-09-13T12:20:12;2.42;;;0.95;;
12218;SDS011;6172;42.646;23.344;2022-09-13T12:28:18;0.80;;;0.80;;
12218;SDS011;6172;42.646;23.344;2022-09-13T12:30:52;2.05;;;0.65;;
12218;SDS011;6172;42.646;23.344;2022-09-13T12:33:29;4.53;;;0.80;;
12218;SDS011;6172;42.646;23.344;2022-09-13T12:39:05;1.95;;;0.60;;
12218;SDS011;6172;42.646;23.344;2022-09-13T12:41:49;1.10;;;0.70;;
12218;SDS011;6172;42.646;23.344;2022-09-13T12:44:37;3.35;;;0.95;;
12218;SDS011;6172;42.646;23.344;2022-09-13T12:47:29;1.73;;;0.93;;
12218;SDS011;6172;42.646;23.344;2022-09-13T12:50:14;1.23;;;0.63;;
12218;SDS011;6172;42.646;23.344;2022-09-13T12:52:56;4.50;;;0.73;;
12218;SDS011;6172;42.646;23.344;2022-09-13T12:55:35;1.67;;;0.73;;
12218;SDS011;6172;42.646;23.344;2022-09-13T12:58:28;0.80;;;0.57;;
12218;SDS011;6172;42.646;23.344;2022-09-13T13:01:22;1.73;;;0.90;;
12218;SDS011;6172;42.646;23.344;2022-09-13T13:03:51;5.47;;;1.02;;
12218;SDS011;6172;42.646;23.344;2022-09-13T13:06:32;2.08;;;0.70;;
12218;SDS011;6172;42.646;23.344;2022-09-13T13:09:05;2.88;;;0.80;;
12218;SDS011;6172;42.646;23.344;2022-09-13T13:11:52;1.48;;;0.80;;
12218;SDS011;6172;42.646;23.344;2022-09-13T13:14:26;0.80;;;0.73;;
12218;SDS011;6172;42.646;23.344;2022-09-13T13:19:57;3.08;;;0.73;;
12218;SDS011;6172;42.646;23.344;2022-09-13T13:25:27;1.33;;;0.50;;
12218;SDS011;6172;42.646;23.344;2022-09-13T13:28:00;1.95;;;0.80;;
12218;SDS011;6172;42.646;23.344;2022-09-13T13:30:38;3.35;;;1.00;;
12218;SDS011;6172;42.646;23.344;2022-09-13T13:33:28;3.60;;;0.80;;
12218;SDS011;6172;42.646;23.344;2022-09-13T13:36:24;3.00;;;0.75;;
12218;SDS011;6172;42.646;23.344;2022-09-13T13:39:31;1.00;;;0.55;;
12218;SDS011;6172;42.646;23.344;2022-09-13T13:42:36;1.20;;;0.65;;
12218;SDS011;6172;42.646;23.344;2022-09-13T13:45:20;1.05;;;1.02;;
12218;SDS011;6172;42.646;23.344;2022-09-13T13:57:31;2.92;;;0.90;;
12218;SDS011;6172;42.646;23.344;2022-09-13T14:03:15;1.20;;;1.10;;
12218;SDS011;6172;42.646;23.344;2022-09-13T14:05:55;3.53;;;1.27;;
12218;SDS011;6172;42.646;23.344;2022-09-13T14:08:45;1.90;;;1.05;;
12218;SDS011;6172;42.646;23.344;2022-09-13T14:11:50;2.30;;;1.50;;
12218;SDS011;6172;42.646;23.344;2022-09-13T14:14:45;1.60;;;1.50;;
12218;SDS011;6172;42.646;23.344;2022-09-13T14:20:55;2.10;;;1.27;;
12218;SDS011;6172;42.646;23.344;2022-09-13T14:23:26;1.17;;;1.10;;
12218;SDS011;6172;42.646;23.344;2022-09-13T14:25:55;4.03;;;1.40;;
12218;SDS011;6172;42.646;23.344;2022-09-13T14:28:23;2.05;;;1.20;;
12218;SDS011;6172;42.646;23.344;2022-09-13T14:30:58;1.48;;;1.38;;
12218;SDS011;6172;42.646;23.344;2022-09-13T14:33:27;1.00;;;1.00;;
12218;SDS011;6172;42.646;23.344;2022-09-13T14:36:03;2.28;;;1.05;;
12218;SDS011;6172;42.646;23.344;2022-09-13T14:38:34;1.55;;;1.20;;
12218;SDS011;6172;42.646;23.344;2022-09-13T14:41:09;3.55;;;1.13;;
12218;SDS011;6172;42.646;23.344;2022-09-13T14:43:53;2.42;;;0.98;;
12218;SDS011;6172;42.646;23.344;2022-09-13T14:47:05;3.83;;;1.00;;
12218;SDS011;6172;42.646;23.344;2022-09-13T14:49:44;1.95;;;1.25;;
12218;SDS011;6172;42.646;23.344;2022-09-13T14:52:20;1.55;;;1.45;;
12218;SDS011;6172;42.646;23.344;2022-09-13T14:54:55;1.27;;;1.17;;
12218;SDS011;6172;42.646;23.344;2022-09-13T14:57:29;1.42;;;1.08;;
12218;SDS011;6172;42.646;23.344;2022-09-13T15:00:15;1.50;;;0.90;;
12218;SDS011;6172;42.646;23.344;2022-09-13T15:02:47;1.92;;;1.10;;
12218;SDS011;6172;42.646;23.344;2022-09-13T15:05:17;1.23;;;1.15;;
12218;SDS011;6172;42.646;23.344;2022-09-13T15:10:43;1.77;;;1.63;;
12218;SDS011;6172;42.646;23.344;2022-09-13T15:13:14;2.00;;;1.02;;
12218;SDS011;6172;42.646;23.344;2022-09-13T15:15:43;1.20;;;1.10;;
12218;SDS011;6172;42.646;23.344;2022-09-13T15:18:28;1.23;;;1.20;;
12218;SDS011;6172;42.646;23.344;2022-09-13T15:21:02;1.08;;;1.08;;
12218;SDS011;6172;42.646;23.344;2022-09-13T15:23:36;2.42;;;1.35;;
12218;SDS011;6172;42.646;23.344;2022-09-13T15:26:08;1.98;;;1.13;;
12218;SDS011;6172;42.646;23.344;2022-09-13T15:29:02;1.13;;;1.02;;
12218;SDS011;6172;42.646;23.344;2022-09-13T15:31:30;3.10;;;2.05;;
12218;SDS011;6172;42.646;23.344;2022-09-13T15:34:18;1.40;;;1.30;;
12218;SDS011;6172;42.646;23.344;2022-09-13T15:37:07;1.52;;;1.30;;
12218;SDS011;6172;42.646;23.344;2022-09-13T15:39:44;1.42;;;1.33;;
12218;SDS011;6172;42.646;23.344;2022-09-13T15:42:13;3.42;;;1.40;;
12218;SDS011;6172;42.646;23.344;2022-09-13T15:44:41;1.13;;;1.10;;
12218;SDS011;6172;42.646;23.344;2022-09-13T15:47:14;1.25;;;1.15;;
12218;SDS011;6172;42.646;23.344;2022-09-13T15:49:48;1.70;;;1.60;;
12218;SDS011;6172;42.646;23.344;2022-09-13T15:52:30;1.58;;;1.30;;
12218;SDS011;6172;42.646;23.344;2022-09-13T15:55:02;2.17;;;1.25;;
12218;SDS011;6172;42.646;23.344;2022-09-13T15:57:34;1.10;;;1.10;;
12218;SDS011;6172;42.646;23.344;2022-09-13T16:00:06;2.65;;;1.58;;
12218;SDS011;6172;42.646;23.344;2022-09-13T16:02:41;1.77;;;1.67;;
12218;SDS011;6172;42.646;23.344;2022-09-13T16:05:11;1.55;;;1.40;;
12218;SDS011;6172;42.646;23.344;2022-09-13T16:07:40;2.53;;;2.00;;
12218;SDS011;6172;42.646;23.344;2022-09-13T16:10:10;3.95;;;1.88;;
12218;SDS011;6172;42.646;23.344;2022-09-13T16:12:41;2.47;;;1.58;;
12218;SDS011;6172;42.646;23.344;2022-09-13T16:15:15;5.57;;;2.42;;
12218;SDS011;6172;42.646;23.344;2022-09-13T16:17:43;3.42;;;2.08;;
12218;SDS011;6172;42.646;23.344;2022-09-13T16:20:15;6.25;;;2.50;;
12218;SDS011;6172;42.646;23.344;2022-09-13T16:22:43;2.78;;;1.73;;
12218;SDS011;6172;42.646;23.344;2022-09-13T16:25:22;5.60;;;2.13;;
12218;SDS011;6172;42.646;23.344;2022-09-13T16:27:50;4.25;;;2.20;;
12218;SDS011;6172;42.646;23.344;2022-09-13T16:30:20;3.05;;;1.80;;
12218;SDS011;6172;42.646;23.344;2022-09-13T16:32:48;2.20;;;2.00;;
12218;SDS011;6172;42.646;23.344;2022-09-13T16:38:24;3.28;;;2.15;;
12218;SDS011;6172;42.646;23.344;2022-09-13T16:40:54;2.20;;;2.00;;
12218;SDS011;6172;42.646;23.344;2022-09-13T16:43:25;3.78;;;2.95;;
12218;SDS011;6172;42.646;23.344;2022-09-13T16:45:53;4.55;;;2.20;;
12218;SDS011;6172;42.646;23.344;2022-09-13T16:48:25;2.13;;;1.92;;
12218;SDS011;6172;42.646;23.344;2022-09-13T16:50:55;2.55;;;2.05;;
12218;SDS011;6172;42.646;23.344;2022-09-13T16:53:31;1.88;;;1.77;;
12218;SDS011;6172;42.646;23.344;2022-09-13T16:56:16;1.95;;;1.85;;
12218;SDS011;6172;42.646;23.344;2022-09-13T16:58:47;2.03;;;1.80;;
12218;SDS011;6172;42.646;23.344;2022-09-13T17:01:17;2.22;;;2.03;;
12218;SDS011;6172;42.646;23.344;2022-09-13T17:03:50;6.00;;;2.13;;
12218;SDS011;6172;42.646;23.344;2022-09-13T17:06:19;2.22;;;2.00;;
12218;SDS011;6172;42.646;23.344;2022-09-13T17:16:43;3.75;;;2.58;;
12218;SDS011;6172;42.646;23.344;2022-09-13T17:19:17;4.70;;;2.50;;
12218;SDS011;6172;42.646;23.344;2022-09-13T17:22:05;3.53;;;2.20;;
12218;SDS011;6172;42.646;23.344;2022-09-13T17:24:35;3.67;;;2.15;;
12218;SDS011;6172;42.646;23.344;2022-09-13T17:27:04;3.75;;;2.58;;
12218;SDS011;6172;42.646;23.344;2022-09-13T17:29:35;3.08;;;2.58;;
12218;SDS011;6172;42.646;23.344;2022-09-13T17:32:07;7.63;;;2.38;;
12218;SDS011;6172;42.646;23.344;2022-09-13T17:34:34;2.22;;;2.13;;
12218;SDS011;6172;42.646;23.344;2022-09-13T17:37:15;3.55;;;2.15;;
12218;SDS011;6172;42.646;23.344;2022-09-13T17:39:46;2.60;;;2.38;;
12218;SDS011;6172;42.646;23.344;2022-09-13T17:42:13;5.07;;;3.00;;
12218;SDS011;6172;42.646;23.344;2022-09-13T17:44:53;2.80;;;2.60;;
12218;SDS011;6172;42.646;23.344;2022-09-13T17:47:32;2.28;;;2.15;;
12218;SDS011;6172;42.646;23.344;2022-09-13T17:49:59;4.53;;;2.35;;
12218;SDS011;6172;42.646;23.344;2022-09-13T17:52:26;3.80;;;1.92;;
12218;SDS011;6172;42.646;23.344;2022-09-13T17:54:53;2.13;;;2.03;;
12218;SDS011;6172;42.646;23.344;2022-09-13T17:57:22;2.30;;;2.10;;
12218;SDS011;6172;42.646;23.344;2022-09-13T18:00:07;2.88;;;2.30;;
12218;SDS011;6172;42.646;23.344;2022-09-13T18:02:36;2.67;;;2.05;;
12218;SDS011;6172;42.646;23.344;2022-09-13T18:05:07;1.98;;;1.88;;
12218;SDS011;6172;42.646;23.344;2022-09-13T18:07:34;2.53;;;2.33;;
12218;SDS011;6172;42.646;23.344;2022-09-13T18:10:03;2.70;;;2.13;;
12218;SDS011;6172;42.646;23.344;2022-09-13T18:12:48;3.08;;;1.85;;
12218;SDS011;6172;42.646;23.344;2022-09-13T18:15:29;3.17;;;1.98;;
12218;SDS011;6172;42.646;23.344;2022-09-13T18:18:07;2.10;;;2.00;;
12218;SDS011;6172;42.646;23.344;2022-09-13T18:20:43;3.28;;;1.85;;
12218;SDS011;6172;42.646;23.344;2022-09-13T18:23:32;3.85;;;1.90;;
12218;SDS011;6172;42.646;23.344;2022-09-13T18:26:26;2.47;;;2.30;;
12218;SDS011;6172;42.646;23.344;2022-09-13T18:29:00;4.15;;;2.58;;
12218;SDS011;6172;42.646;23.344;2022-09-13T18:31:34;2.63;;;2.38;;
12218;SDS011;6172;42.646;23.344;2022-09-13T18:34:03;2.42;;;1.77;;
12218;SDS011;6172;42.646;23.344;2022-09-13T18:37:05;2.30;;;1.92;;
12218;SDS011;6172;42.646;23.344;2022-09-13T18:39:34;2.22;;;1.98;;
12218;SDS011;6172;42.646;23.344;2022-09-13T18:42:12;3.28;;;2.30;;
12218;SDS011;6172;42.646;23.344;2022-09-13T18:48:06;2.25;;;1.90;;
12218;SDS011;6172;42.646;23.344;2022-09-13T18:50:39;3.90;;;2.13;;
12218;SDS011;6172;42.646;23.344;2022-09-13T18:53:07;2.25;;;2.10;;
12218;SDS011;6172;42.646;23.344;2022-09-13T18:55:37;2.60;;;1.83;;
12218;SDS011;6172;42.646;23.344;2022-09-13T18:58:04;2.87;;;2.67;;
12218;SDS011;6172;42.646;23.344;2022-09-13T19:00:31;2.93;;;2.60;;
12218;SDS011;6172;42.646;23.344;2022-09-13T19:02:58;5.00;;;2.60;;
12218;SDS011;6172;42.646;23.344;2022-09-13T19:05:29;3.73;;;2.63;;
12218;SDS011;6172;42.646;23.344;2022-09-13T19:07:59;2.60;;;2.40;;
12218;SDS011;6172;42.646;23.344;2022-09-13T19:10:26;2.85;;;2.60;;
12218;SDS011;6172;42.646;23.344;2022-09-13T19:12:56;3.70;;;2.35;;
12218;SDS011;6172;42.646;23.344;2022-09-13T19:15:24;3.30;;;2.50;;
12218;SDS011;6172;42.646;23.344;2022-09-13T19:17:51;2.70;;;2.47;;
12218;SDS011;6172;42.646;23.344;2022-09-13T19:20:18;2.77;;;2.33;;
12218;SDS011;6172;42.646;23.344;2022-09-13T19:22:48;3.45;;;2.40;;
12218;SDS011;6172;42.646;23.344;2022-09-13T19:25:16;4.93;;;2.40;;
12218;SDS011;6172;42.646;23.344;2022-09-13T19:27:43;3.47;;;2.27;;
12218;SDS011;6172;42.646;23.344;2022-09-13T19:30:12;3.95;;;2.03;;
12218;SDS011;6172;42.646;23.344;2022-09-13T19:32:40;2.35;;;2.17;;
12218;SDS011;6172;42.646;23.344;2022-09-13T19:35:08;2.17;;;2.08;;
12218;SDS011;6172;42.646;23.344;2022-09-13T19:37:35;3.53;;;2.00;;
12218;SDS011;6172;42.646;23.344;2022-09-13T19:40:10;3.03;;;2.40;;
12218;SDS011;6172;42.646;23.344;2022-09-13T19:42:40;2.95;;;2.05;;
12218;SDS011;6172;42.646;23.344;2022-09-13T19:45:12;1.90;;;1.80;;
12218;SDS011;6172;42.646;23.344;2022-09-13T19:47:39;2.85;;;2.15;;
12218;SDS011;6172;42.646;23.344;2022-09-13T19:50:16;2.03;;;1.83;;